weather.gov     
National Weather Service

Terminal Aerodrome Forecast
NWS Homepage
This page is being discontinued on March 12, 2014.
The same data is available at this site. Please update your bookmarks.
Thank you, and we apologize for the inconvenience.
Please send an email to SR-SRH.Webmaster@noaa.gov with any concerns.


Current Version
Previous Version:    01  02  03  04  05  06  07  08  09  10  11  12  13  14  15  16  17  18  19  20  21  22  23  24  25  26  27  28  29  
[Printable]
079
FTUS44 KHGX 192320
TAFSGR
TAF
KSGR 192320Z 2000/2024 14009KT P6SM SCT050 SCT250
     FM200600 VRB03KT P6SM SCT130
     FM200900 VRB03KT P6SM FEW015 SCT150
      TEMPO 2010/2013 3SM BR SCT003 BKN015
     FM201500 14010KT P6SM FEW030 SCT070 SCT250=


079
FTUS44 KHGX 192320
TAFSGR
TAF
KSGR 192320Z 2000/2024 14009KT P6SM SCT050 SCT250
     FM200600 VRB03KT P6SM SCT130
     FM200900 VRB03KT P6SM FEW015 SCT150
      TEMPO 2010/2013 3SM BR SCT003 BKN015
     FM201500 14010KT P6SM FEW030 SCT070 SCT250=




U.S. Dept. of Commerce
NOAA National Weather Service
1325 East West Highway
Silver Spring, MD 20910
E-mail: w-nws.webmaster@noaa.gov
Page last modified: May 16, 2007
NATIONAL WEATHER SERVICE: for Safety, for Work, for Fun - FOR LIFE